createdAt,value
2019-06-01T00:01:54.176Z,12.17
2019-06-01T00:04:27.172Z,12.50
2019-06-01T00:06:58.851Z,11.93
2019-06-01T00:09:30.323Z,13.93
2019-06-01T00:12:01.820Z,13.07
2019-06-01T00:14:33.128Z,9.97
2019-06-01T00:17:05.018Z,12.20
2019-06-01T00:19:36.377Z,10.27
2019-06-01T00:22:07.841Z,9.63
2019-06-01T00:24:39.469Z,14.80
2019-06-01T00:27:11.062Z,13.13
2019-06-01T00:29:42.763Z,15.53
2019-06-01T00:32:14.224Z,9.63
2019-06-01T00:34:45.822Z,10.43
2019-06-01T00:37:18.437Z,12.40
2019-06-01T00:39:49.998Z,16.57
2019-06-01T00:42:22.527Z,11.13
2019-06-01T00:44:53.934Z,10.53
2019-06-01T00:47:25.508Z,9.03
2019-06-01T00:49:56.763Z,10.93
2019-06-01T00:52:28.433Z,11.20
2019-06-01T00:54:59.782Z,10.27
2019-06-01T00:57:31.002Z,10.77
2019-06-01T01:00:04.350Z,10.23
2019-06-01T01:02:37.211Z,13.77
2019-06-01T01:05:10.155Z,13.23
2019-06-01T01:07:41.997Z,9.10
2019-06-01T01:10:13.475Z,10.63
2019-06-01T01:13:05.221Z,11.17
2019-06-01T01:15:37.207Z,11.27
2019-06-01T01:18:08.839Z,16.13
2019-06-01T01:20:40.334Z,11.07
2019-06-01T01:23:11.718Z,11.97
2019-06-01T01:25:43.785Z,13.00
2019-06-01T01:28:14.994Z,12.07
2019-06-01T01:31:01.549Z,11.00
2019-06-01T01:33:19.716Z,12.07
2019-06-01T01:35:52.560Z,12.63
2019-06-01T01:38:24.774Z,12.83
2019-06-01T01:40:56.267Z,13.90
2019-06-01T01:43:28.105Z,12.83
2019-06-01T01:45:59.960Z,13.43
2019-06-01T01:48:31.545Z,12.73
2019-06-01T01:51:03.181Z,14.93
2019-06-01T01:53:34.715Z,12.93
2019-06-01T01:56:05.966Z,14.77
2019-06-01T01:58:37.577Z,13.13
2019-06-01T02:01:21.346Z,11.50
2019-06-01T02:03:42.188Z,11.07
2019-06-01T02:06:14.527Z,12.27
2019-06-01T02:08:45.782Z,17.87
2019-06-01T02:11:17.525Z,13.00
2019-06-01T02:13:49.015Z,12.50
2019-06-01T02:16:20.477Z,13.30
2019-06-01T02:18:53.861Z,10.30
2019-06-01T02:21:25.108Z,13.07
2019-06-01T02:23:56.993Z,12.33
2019-06-01T02:26:28.578Z,12.37
2019-06-01T02:29:02.010Z,15.60
2019-06-01T02:31:41.544Z,14.17
2019-06-01T02:34:06.590Z,16.20
2019-06-01T02:36:38.133Z,13.33
2019-06-01T02:39:11.727Z,13.60
2019-06-01T02:41:43.265Z,11.57
2019-06-01T02:44:15.046Z,14.03
2019-06-01T02:46:46.459Z,13.27
2019-06-01T02:49:18.354Z,16.63
2019-06-01T02:51:49.871Z,13.57
2019-06-01T02:54:21.213Z,14.07
2019-06-01T02:56:52.677Z,11.37
2019-06-01T02:59:24.203Z,13.33
2019-06-01T03:02:00.220Z,9.80
2019-06-01T03:04:30.011Z,15.47
2019-06-01T03:07:03.765Z,12.37
2019-06-01T03:09:38.572Z,13.33
2019-06-01T03:12:11.366Z,15.20
2019-06-01T03:14:44.151Z,14.63
2019-06-01T03:17:16.397Z,14.87
2019-06-01T03:19:49.070Z,15.20
2019-06-01T03:22:22.309Z,17.10
2019-06-01T03:24:54.137Z,17.97
2019-06-01T03:27:28.649Z,17.50
2019-06-01T03:30:03.932Z,18.00
2019-06-01T03:32:37.337Z,17.43
2019-06-01T03:35:10.857Z,15.90
2019-06-01T03:37:42.313Z,16.70
2019-06-01T03:40:23.153Z,16.13
2019-06-01T03:42:47.092Z,19.77
2019-06-01T03:45:18.652Z,17.23
2019-06-01T03:47:50.007Z,13.20
2019-06-01T03:50:21.392Z,16.07
2019-06-01T03:52:52.923Z,13.70
2019-06-01T03:55:24.479Z,13.47
2019-06-01T03:57:55.968Z,15.60
2019-06-01T04:00:27.404Z,12.17
2019-06-01T04:02:58.927Z,15.07
2019-06-01T04:05:30.447Z,15.30
2019-06-01T04:08:01.825Z,18.60
2019-06-01T04:10:33.161Z,14.43
2019-06-01T04:13:05.629Z,16.50
2019-06-01T04:15:37.589Z,13.20
2019-06-01T04:18:10.185Z,14.83
2019-06-01T04:20:42.028Z,14.40
2019-06-01T04:23:14.624Z,13.87
2019-06-01T04:25:46.031Z,14.37
2019-06-01T04:28:17.445Z,15.77
2019-06-01T04:30:48.914Z,14.43
2019-06-01T04:33:21.276Z,13.17
2019-06-01T04:35:52.789Z,12.83
2019-06-01T04:38:24.239Z,14.70
2019-06-01T04:40:55.571Z,14.97
2019-06-01T04:43:26.891Z,15.40
2019-06-01T04:45:58.502Z,14.90
2019-06-01T04:48:30.195Z,13.80
2019-06-01T04:51:01.552Z,17.20
2019-06-01T04:53:33.055Z,12.67
2019-06-01T04:56:04.841Z,15.80
2019-06-01T04:58:36.430Z,13.03
2019-06-01T05:01:08.868Z,14.63
2019-06-01T05:03:40.502Z,12.60
2019-06-01T05:06:13.311Z,11.90
2019-06-01T05:08:44.826Z,14.93
2019-06-01T05:11:16.057Z,12.77
2019-06-01T05:13:47.522Z,15.33
2019-06-01T05:16:19.169Z,13.27
2019-06-01T05:18:50.467Z,13.40
2019-06-01T05:21:22.875Z,13.20
2019-06-01T05:23:54.522Z,12.20
2019-06-01T05:26:26.054Z,13.87
2019-06-01T05:28:57.671Z,12.03
2019-06-01T05:31:29.478Z,13.60
2019-06-01T05:34:00.971Z,15.73
2019-06-01T05:36:32.566Z,11.00
2019-06-01T05:39:06.302Z,14.17
2019-06-01T05:41:37.768Z,10.17
2019-06-01T05:44:09.171Z,11.00
2019-06-01T05:46:40.760Z,8.57
2019-06-01T05:49:13.198Z,10.67
2019-06-01T05:51:46.631Z,10.10
2019-06-01T05:54:18.894Z,8.73
2019-06-01T05:56:50.417Z,9.47
2019-06-01T05:59:22.323Z,9.73
2019-06-01T06:01:53.919Z,10.87
2019-06-01T06:04:25.706Z,8.20
2019-06-01T06:06:57.116Z,9.07
2019-06-01T06:09:28.563Z,7.43
2019-06-01T06:11:59.924Z,9.63
2019-06-01T06:14:34.213Z,8.70
2019-06-01T06:17:06.633Z,10.53
2019-06-01T06:19:38.228Z,10.03
2019-06-01T06:22:09.571Z,9.90
2019-06-01T06:24:40.929Z,9.40
2019-06-01T06:27:12.440Z,6.80
2019-06-01T06:29:44.736Z,5.10
2019-06-01T06:32:19.169Z,4.67
2019-06-01T06:34:50.595Z,8.43
2019-06-01T06:37:22.056Z,6.60
2019-06-01T06:39:57.641Z,6.40
2019-06-01T06:42:29.228Z,5.80
2019-06-01T06:45:03.586Z,5.80
2019-06-01T06:47:34.924Z,8.43
2019-06-01T06:50:06.994Z,5.90
2019-06-01T06:52:38.372Z,8.63
2019-06-01T06:55:10.195Z,8.17
2019-06-01T06:57:41.492Z,6.67
2019-06-01T07:00:13.051Z,5.50
2019-06-01T07:02:44.539Z,5.97
2019-06-01T07:05:17.141Z,4.63
2019-06-01T07:07:48.986Z,4.80
2019-06-01T07:10:20.612Z,4.53
2019-06-01T07:12:52.129Z,5.47
2019-06-01T07:15:24.031Z,6.53
2019-06-01T07:17:55.360Z,7.70
2019-06-01T07:20:27.808Z,4.50
2019-06-01T07:22:59.581Z,5.00
2019-06-01T07:25:30.997Z,4.63
2019-06-01T07:28:03.157Z,5.60
2019-06-01T07:30:49.867Z,5.30
2019-06-01T07:33:08.313Z,4.40
2019-06-01T07:35:40.227Z,6.53
2019-06-01T07:38:11.634Z,5.27
2019-06-01T07:40:43.113Z,5.07
2019-06-01T07:43:14.602Z,5.70
2019-06-01T07:45:45.894Z,4.30
2019-06-01T07:48:17.482Z,3.93
2019-06-01T07:50:49.051Z,5.70
2019-06-01T07:53:20.959Z,5.57
2019-06-01T07:55:52.351Z,4.00
2019-06-01T07:58:24.658Z,6.43
2019-06-01T08:00:56.059Z,9.80
2019-06-01T08:03:30.871Z,3.80
2019-06-01T08:06:00.682Z,3.77
2019-06-01T08:08:32.780Z,3.40
2019-06-01T08:11:04.241Z,3.57
2019-06-01T08:13:35.979Z,3.13
2019-06-01T08:16:07.688Z,3.77
2019-06-01T08:18:39.571Z,6.17
2019-06-01T08:21:11.158Z,6.30
2019-06-01T08:23:43.761Z,3.83
2019-06-01T08:26:15.071Z,4.57
2019-06-01T08:28:46.452Z,2.73
2019-06-01T08:31:18.396Z,5.43
2019-06-01T08:33:49.745Z,8.57
2019-06-01T08:36:21.084Z,5.53
2019-06-01T08:38:52.708Z,3.60
2019-06-01T08:41:25.513Z,2.73
2019-06-01T08:43:56.943Z,3.37
2019-06-01T08:46:29.589Z,2.30
2019-06-01T08:49:00.944Z,4.50
2019-06-01T08:51:32.176Z,4.53
2019-06-01T08:54:03.605Z,4.53
2019-06-01T08:56:35.133Z,3.77
2019-06-01T08:59:07.510Z,4.50
2019-06-01T09:01:39.049Z,2.57
2019-06-01T09:04:10.434Z,6.17
2019-06-01T09:06:41.988Z,2.63
2019-06-01T09:09:13.348Z,5.70
2019-06-01T09:11:44.987Z,2.37
2019-06-01T09:14:16.496Z,4.33
2019-06-01T09:16:47.832Z,3.30
2019-06-01T09:19:19.430Z,2.93
2019-06-01T09:21:51.142Z,3.50
2019-06-01T09:24:22.518Z,4.23
2019-06-01T09:26:54.005Z,2.30
2019-06-01T09:29:25.811Z,2.87
2019-06-01T09:31:57.243Z,3.00
2019-06-01T09:34:28.621Z,4.17
2019-06-01T09:37:00.304Z,3.07
2019-06-01T09:39:33.072Z,2.90
2019-06-01T09:42:04.685Z,3.33
2019-06-01T09:44:37.241Z,4.87
2019-06-01T09:47:08.752Z,13.87
2019-06-01T09:49:40.390Z,5.30
2019-06-01T09:52:12.598Z,3.20
2019-06-01T09:54:44.489Z,2.87
2019-06-01T09:57:15.975Z,2.93
2019-06-01T09:59:47.356Z,3.43
2019-06-01T10:02:18.747Z,2.67
2019-06-01T10:04:50.157Z,3.73
2019-06-01T10:07:21.486Z,3.00
2019-06-01T10:09:53.587Z,6.47
2019-06-01T10:12:24.857Z,3.27
2019-06-01T10:14:56.431Z,3.23
2019-06-01T10:17:27.781Z,4.60
2019-06-01T10:19:59.093Z,2.67
2019-06-01T10:22:30.975Z,4.80
2019-06-01T10:25:05.815Z,3.00
2019-06-01T10:27:38.528Z,3.50
2019-06-01T10:30:11.632Z,4.62
2019-06-01T10:32:42.979Z,3.83
2019-06-01T10:35:14.562Z,5.07
2019-06-01T10:37:45.967Z,3.47
2019-06-01T10:40:17.358Z,3.60
2019-06-01T10:42:48.974Z,3.30
2019-06-01T10:45:20.263Z,4.43
2019-06-01T10:47:51.653Z,3.35
2019-06-01T10:50:24.094Z,2.92
2019-06-01T10:52:55.399Z,3.13
2019-06-01T10:55:26.884Z,2.83
2019-06-01T10:57:58.112Z,3.75
2019-06-01T11:00:39.832Z,2.83
2019-06-01T11:03:02.784Z,3.20
2019-06-01T11:05:34.989Z,3.40
2019-06-01T11:08:06.595Z,4.40
2019-06-01T11:10:38.921Z,4.10
2019-06-01T11:13:10.352Z,3.13
2019-06-01T11:15:44.706Z,3.63
2019-06-01T11:18:16.032Z,4.70
2019-06-01T11:20:47.264Z,4.67
2019-06-01T11:23:18.477Z,9.33
2019-06-01T11:25:49.839Z,4.33
2019-06-01T11:28:21.153Z,2.90
2019-06-01T11:30:52.636Z,4.30
2019-06-01T11:33:23.936Z,3.80
2019-06-01T11:35:56.481Z,3.83
2019-06-01T11:38:27.679Z,4.27
2019-06-01T11:40:59.042Z,3.37
2019-06-01T11:43:30.402Z,3.03
2019-06-01T11:46:01.844Z,3.20
2019-06-01T11:48:34.988Z,2.90
2019-06-01T11:51:06.662Z,11.63
2019-06-01T11:53:39.972Z,3.07
2019-06-01T11:56:11.623Z,4.60
2019-06-01T11:58:43.395Z,3.03
2019-06-01T12:01:15.425Z,2.73
2019-06-01T12:03:47.368Z,3.57
2019-06-01T12:06:18.770Z,2.10
2019-06-01T12:08:50.243Z,1.70
2019-06-01T12:11:21.586Z,4.20
2019-06-01T12:13:52.942Z,3.80
2019-06-01T12:16:24.412Z,3.03
2019-06-01T12:18:55.704Z,2.80
2019-06-01T12:21:31.552Z,1.90
2019-06-01T12:24:03.426Z,1.80
2019-06-01T12:26:37.133Z,1.60
2019-06-01T12:29:09.172Z,1.73
2019-06-01T12:31:41.643Z,2.50
2019-06-01T12:34:13.461Z,3.37
2019-06-01T12:36:46.285Z,2.27
2019-06-01T12:39:17.959Z,2.23
2019-06-01T12:41:49.607Z,4.12
2019-06-01T12:44:25.889Z,7.53
2019-06-01T12:46:58.331Z,3.25
2019-06-01T12:49:30.139Z,7.40
2019-06-01T12:52:02.128Z,1.60
2019-06-01T12:54:34.028Z,4.30
2019-06-01T12:57:05.235Z,1.80
2019-06-01T12:59:36.458Z,4.57
2019-06-01T13:02:08.494Z,6.22
2019-06-01T13:04:40.617Z,2.00
2019-06-01T13:07:11.955Z,2.97
2019-06-01T13:09:43.992Z,162.27
2019-06-01T13:12:15.691Z,3.13
2019-06-01T13:14:47.285Z,3.17
2019-06-01T13:17:19.597Z,7.83
2019-06-01T13:19:51.571Z,2.70
2019-06-01T13:22:23.242Z,2.45
2019-06-01T13:24:56.229Z,2.45
2019-06-01T13:27:27.575Z,2.80
2019-06-01T13:29:58.914Z,6.57
2019-06-01T13:32:30.556Z,3.40
2019-06-01T13:35:05.106Z,3.20
2019-06-01T13:37:36.774Z,40.67
2019-06-01T13:40:08.570Z,2.37
2019-06-01T13:42:40.070Z,1.70
2019-06-01T13:45:12.058Z,2.37
2019-06-01T13:47:43.489Z,5.00
2019-06-01T13:50:15.137Z,2.40
2019-06-01T13:52:46.390Z,2.03
2019-06-01T13:55:17.603Z,3.77
2019-06-01T13:57:48.820Z,2.60
2019-06-01T14:00:29.833Z,2.13
2019-06-01T14:02:55.874Z,1.87
2019-06-01T14:05:27.340Z,2.77
2019-06-01T14:07:58.860Z,3.37
2019-06-01T14:10:30.365Z,3.03
2019-06-01T14:13:05.158Z,5.60
2019-06-01T14:15:35.574Z,2.40
2019-06-01T14:18:07.026Z,2.70
2019-06-01T14:20:38.349Z,1.80
2019-06-01T14:23:10.312Z,2.50
2019-06-01T14:25:42.007Z,3.10
2019-06-01T14:28:13.563Z,2.60
2019-06-01T14:30:46.120Z,2.73
2019-06-01T14:33:17.811Z,5.03
2019-06-01T14:35:50.174Z,2.57
2019-06-01T14:38:21.877Z,3.50
2019-06-01T14:40:53.689Z,8.47
2019-06-01T14:43:25.035Z,3.50
2019-06-01T14:45:56.466Z,2.00
2019-06-01T14:48:27.893Z,4.80
2019-06-01T14:50:59.478Z,2.63
2019-06-01T14:53:31.621Z,3.00
2019-06-01T14:56:04.528Z,2.20
2019-06-01T14:58:35.856Z,4.23
2019-06-01T15:01:07.162Z,3.90
2019-06-01T15:03:38.782Z,4.23
2019-06-01T15:06:10.430Z,6.43
2019-06-01T15:08:41.759Z,3.13
2019-06-01T15:11:13.237Z,2.37
2019-06-01T15:13:44.900Z,5.60
2019-06-01T15:16:16.449Z,11.50
2019-06-01T15:18:47.813Z,4.50
2019-06-01T15:21:19.089Z,1.93
2019-06-01T15:23:51.858Z,2.70
2019-06-01T15:26:23.476Z,6.30
2019-06-01T15:28:54.791Z,13.13
2019-06-01T15:31:26.443Z,2.67
2019-06-01T15:33:57.971Z,4.37
2019-06-01T15:36:30.156Z,1.90
2019-06-01T15:39:03.232Z,1.20
2019-06-01T15:41:35.566Z,1.73
2019-06-01T15:44:07.143Z,6.60
2019-06-01T15:46:38.477Z,11.83
2019-06-01T15:49:09.832Z,9.37
2019-06-01T15:51:41.195Z,3.60
2019-06-01T15:54:12.394Z,2.90
2019-06-01T15:56:43.860Z,3.43
2019-06-01T15:59:15.193Z,2.27
2019-06-01T16:01:46.470Z,3.43
2019-06-01T16:04:18.024Z,2.37
2019-06-01T16:06:49.383Z,4.00
2019-06-01T16:09:20.842Z,2.40
2019-06-01T16:11:53.375Z,2.87
2019-06-01T16:14:24.909Z,2.57
2019-06-01T16:16:56.274Z,4.03
2019-06-01T16:19:29.280Z,3.03
2019-06-01T16:22:00.694Z,3.20
2019-06-01T16:24:31.971Z,4.00
2019-06-01T16:27:04.698Z,2.30
2019-06-01T16:29:36.414Z,5.33
2019-06-01T16:32:07.911Z,4.43
2019-06-01T16:34:39.349Z,5.50
2019-06-01T16:37:10.972Z,6.83
2019-06-01T16:39:57.934Z,4.53
2019-06-01T16:42:15.807Z,7.13
2019-06-01T16:44:47.117Z,4.47
2019-06-01T16:47:18.484Z,4.73
2019-06-01T16:49:49.662Z,4.90
2019-06-01T16:52:21.142Z,7.00
2019-06-01T16:54:52.527Z,4.13
2019-06-01T16:57:24.269Z,8.53
2019-06-01T16:59:56.346Z,7.20
2019-06-01T17:02:28.598Z,5.73
2019-06-01T17:05:00.655Z,8.60
2019-06-01T17:07:32.140Z,5.03
2019-06-01T17:10:21.715Z,7.63
2019-06-01T17:12:43.541Z,5.23
2019-06-01T17:15:14.134Z,5.77
2019-06-01T17:17:45.299Z,4.27
2019-06-01T17:20:40.427Z,4.20
2019-06-01T17:23:32.714Z,6.97
2019-06-01T17:25:46.621Z,3.73
2019-06-01T17:28:18.476Z,3.20
2019-06-01T17:30:50.066Z,8.70
2019-06-01T17:33:21.626Z,4.93
2019-06-01T17:35:53.040Z,4.17
2019-06-01T17:38:24.355Z,4.90
2019-06-01T17:40:55.736Z,6.97
2019-06-01T17:43:27.092Z,4.77
2019-06-01T17:45:58.605Z,8.03
2019-06-01T17:48:30.128Z,6.17
2019-06-01T17:51:02.571Z,11.60
2019-06-01T17:53:34.284Z,12.37
2019-06-01T17:56:06.095Z,9.77
2019-06-01T17:58:37.678Z,9.93
2019-06-01T18:01:09.949Z,8.00
2019-06-01T18:03:41.627Z,8.17
2019-06-01T18:06:14.589Z,7.80
2019-06-01T18:08:46.006Z,6.73
2019-06-01T18:11:17.621Z,5.13
2019-06-01T18:13:49.060Z,9.00
2019-06-01T18:16:20.472Z,10.67
2019-06-01T18:18:51.929Z,15.40
2019-06-01T18:21:23.371Z,8.93
2019-06-01T18:23:54.893Z,15.53
2019-06-01T18:26:26.388Z,17.83
2019-06-01T18:28:57.717Z,17.10
2019-06-01T18:31:29.204Z,21.90
2019-06-01T18:34:03.002Z,9.83
2019-06-01T18:36:34.782Z,10.83
2019-06-01T18:39:07.592Z,15.27
2019-06-01T18:41:39.015Z,12.10
2019-06-01T18:44:10.177Z,9.87
2019-06-01T18:46:41.715Z,12.53
2019-06-01T18:49:17.571Z,20.67
2019-06-01T18:51:46.441Z,30.80
2019-06-01T18:54:17.822Z,23.33
2019-06-01T18:56:49.181Z,19.97
2019-06-01T18:59:23.594Z,18.50
2019-06-01T19:01:55.022Z,15.63
2019-06-01T19:04:26.189Z,36.30
2019-06-01T19:06:57.886Z,72.67
2019-06-01T19:09:29.172Z,31.83
2019-06-01T19:12:00.580Z,27.73
2019-06-01T19:14:31.889Z,18.07
2019-06-01T19:17:03.371Z,22.77
2019-06-01T19:19:34.746Z,16.20
2019-06-01T19:22:06.389Z,24.37
2019-06-01T19:24:37.722Z,27.33
2019-06-01T19:27:09.117Z,57.17
2019-06-01T19:29:40.566Z,62.70
2019-06-01T19:32:12.898Z,65.40
2019-06-01T19:34:44.975Z,56.93
2019-06-01T19:37:17.218Z,65.37
2019-06-01T19:39:48.923Z,62.07
2019-06-01T19:42:20.129Z,58.67
2019-06-01T19:44:51.444Z,69.03
2019-06-01T19:47:22.619Z,67.60
2019-06-01T19:49:54.379Z,70.17
2019-06-01T19:52:25.738Z,65.27
2019-06-01T19:54:57.503Z,63.77
2019-06-01T19:57:29.184Z,73.03
2019-06-01T20:00:00.431Z,78.27
2019-06-01T20:02:34.285Z,81.90
2019-06-01T20:05:05.373Z,83.07
2019-06-01T20:07:36.839Z,83.07
2019-06-01T20:10:10.089Z,82.83
2019-06-01T20:12:42.885Z,75.47
2019-06-01T20:15:15.472Z,78.97
2019-06-01T20:17:47.148Z,75.43
2019-06-01T20:20:19.689Z,68.80
2019-06-01T20:22:51.186Z,66.00
2019-06-01T20:25:22.700Z,71.70
2019-06-01T20:27:54.209Z,89.40
2019-06-01T20:30:25.654Z,62.13
2019-06-01T20:32:57.194Z,164.77
2019-06-01T20:35:28.607Z,241.50
2019-06-01T20:38:00.058Z,284.87
2019-06-01T20:40:31.615Z,147.77
2019-06-01T20:43:03.091Z,126.07
2019-06-01T20:45:35.648Z,122.97
2019-06-01T20:48:10.263Z,158.10
2019-06-01T20:50:41.605Z,206.57
2019-06-01T20:53:16.947Z,354.33
2019-06-01T20:55:48.248Z,304.27
2019-06-01T20:58:21.972Z,163.50
2019-06-01T21:00:53.892Z,122.47
2019-06-01T21:03:26.276Z,130.37
2019-06-01T21:05:59.076Z,160.40
2019-06-01T21:08:30.542Z,99.23
2019-06-01T21:11:02.255Z,115.37
2019-06-01T21:13:33.553Z,104.20
2019-06-01T21:16:05.235Z,88.73
2019-06-01T21:18:37.214Z,79.73
2019-06-01T21:21:09.722Z,105.60
2019-06-01T21:23:41.052Z,65.93
2019-06-01T21:26:15.017Z,61.53
2019-06-01T21:28:46.715Z,64.40
2019-06-01T21:31:18.946Z,62.43
2019-06-01T21:33:50.610Z,55.77
2019-06-01T21:36:21.934Z,51.10
2019-06-01T21:38:53.571Z,52.90
2019-06-01T21:41:25.759Z,49.70
2019-06-01T21:43:57.863Z,48.13
2019-06-01T21:46:29.509Z,42.90
2019-06-01T21:49:01.573Z,38.33
2019-06-01T21:51:33.467Z,41.60
2019-06-01T21:54:04.760Z,36.17
2019-06-01T21:56:36.415Z,35.93
2019-06-01T21:59:07.994Z,34.30
2019-06-01T22:01:39.454Z,30.67
2019-06-01T22:04:11.354Z,33.60
2019-06-01T22:06:46.157Z,36.63
2019-06-01T22:09:17.107Z,36.10
2019-06-01T22:11:48.811Z,29.73
2019-06-01T22:14:21.276Z,27.23
2019-06-01T22:16:53.215Z,33.87
2019-06-01T22:19:25.765Z,31.13
2019-06-01T22:21:57.372Z,26.47
2019-06-01T22:24:28.638Z,31.87
2019-06-01T22:27:00.662Z,29.20
2019-06-01T22:29:31.933Z,25.27
2019-06-01T22:32:03.474Z,27.03
2019-06-01T22:34:35.242Z,26.43
2019-06-01T22:37:06.714Z,27.67
2019-06-01T22:39:38.282Z,23.70
2019-06-01T22:42:09.708Z,24.13
2019-06-01T22:44:40.977Z,28.77
2019-06-01T22:47:12.289Z,35.57
2019-06-01T22:49:43.592Z,29.77
2019-06-01T22:52:15.154Z,28.33
2019-06-01T22:54:46.561Z,26.27
2019-06-01T22:57:17.964Z,31.77
2019-06-01T22:59:49.457Z,36.13
2019-06-01T23:02:21.548Z,30.97
2019-06-01T23:04:53.245Z,32.80
2019-06-01T23:07:25.121Z,27.77
2019-06-01T23:09:56.702Z,31.93
2019-06-01T23:12:28.022Z,31.50
2019-06-01T23:14:59.488Z,30.37
2019-06-01T23:17:32.008Z,28.83
2019-06-01T23:20:07.016Z,28.07
2019-06-01T23:22:38.634Z,34.17
2019-06-01T23:25:10.364Z,40.20
2019-06-01T23:27:41.960Z,33.57
2019-06-01T23:30:13.872Z,38.57
2019-06-01T23:32:45.372Z,36.67
2019-06-01T23:35:16.870Z,30.50
2019-06-01T23:37:48.496Z,44.70
2019-06-01T23:40:20.059Z,36.17
2019-06-01T23:42:51.524Z,37.87
2019-06-01T23:45:23.078Z,35.53
2019-06-01T23:47:54.679Z,39.50
2019-06-01T23:50:27.165Z,44.27
2019-06-01T23:53:12.871Z,52.77
2019-06-01T23:55:31.976Z,38.17
2019-06-01T23:58:03.521Z,39.23
